createdAt,value
2022-10-24T00:01:15.301Z,10.26
2022-10-24T00:06:37.236Z,10.06
2022-10-24T00:11:59.189Z,10.02
2022-10-24T00:17:21.044Z,9.98
2022-10-24T00:22:43.004Z,10.03
2022-10-24T00:28:05.174Z,10.05
2022-10-24T00:33:27.317Z,9.95
2022-10-24T00:38:50.778Z,9.92
2022-10-24T00:44:21.069Z,10.05
2022-10-24T00:49:45.890Z,10.04
2022-10-24T00:55:08.587Z,10.01
2022-10-24T01:00:33.562Z,9.91
2022-10-24T01:06:04.351Z,9.92
2022-10-24T01:11:48.002Z,9.88
2022-10-24T01:17:25.322Z,9.88
2022-10-24T01:22:49.844Z,9.93
2022-10-24T01:28:16.048Z,9.93
2022-10-24T01:33:46.018Z,9.90
2022-10-24T01:39:14.821Z,9.93
2022-10-24T01:44:44.424Z,9.85
2022-10-24T01:50:10.328Z,9.95
2022-10-24T01:55:32.983Z,9.97
2022-10-24T02:01:00.419Z,9.80
2022-10-24T02:06:28.363Z,9.82
2022-10-24T02:11:52.961Z,9.85
2022-10-24T02:17:15.633Z,9.73
2022-10-24T02:22:51.675Z,9.77
2022-10-24T02:28:18.362Z,9.81
2022-10-24T02:33:41.150Z,9.59
2022-10-24T02:39:07.389Z,9.82
2022-10-24T02:44:29.898Z,9.90
2022-10-24T02:49:51.994Z,9.96
2022-10-24T02:55:13.968Z,10.10
2022-10-24T03:00:35.896Z,10.14
2022-10-24T03:05:57.787Z,10.11
2022-10-24T03:11:19.697Z,10.04
2022-10-24T03:16:41.894Z,10.05
2022-10-24T03:22:03.843Z,10.11
2022-10-24T03:27:25.699Z,10.07
2022-10-24T03:32:47.919Z,10.01
2022-10-24T03:38:09.890Z,10.02
2022-10-24T03:43:31.838Z,10.08
2022-10-24T03:48:53.713Z,9.98
2022-10-24T03:54:15.630Z,10.00
2022-10-24T03:59:37.991Z,9.96
2022-10-24T04:04:59.798Z,9.96
2022-10-24T04:10:22.219Z,10.13
2022-10-24T04:15:44.051Z,10.05
2022-10-24T04:21:06.499Z,10.03
2022-10-24T04:26:28.619Z,10.09
2022-10-24T04:31:50.554Z,10.09
2022-10-24T04:37:12.384Z,10.08
2022-10-24T04:42:34.248Z,10.06
2022-10-24T04:47:56.064Z,9.99
2022-10-24T04:53:17.953Z,9.99
2022-10-24T04:58:39.817Z,9.95
2022-10-24T05:09:28.691Z,9.77
2022-10-24T05:14:50.518Z,9.97
2022-10-24T05:20:12.528Z,10.15
2022-10-24T05:25:34.400Z,10.13
2022-10-24T05:30:56.508Z,10.15
2022-10-24T05:36:18.342Z,10.27
2022-10-24T05:41:44.681Z,10.24
2022-10-24T05:47:08.932Z,10.42
2022-10-24T05:52:30.740Z,10.55
2022-10-24T05:57:52.618Z,10.55
2022-10-24T06:03:14.496Z,10.46
2022-10-24T06:08:37.681Z,10.59
2022-10-24T06:13:59.536Z,10.65
2022-10-24T06:19:21.366Z,10.71
2022-10-24T06:24:43.207Z,10.84
2022-10-24T06:30:06.392Z,10.80
2022-10-24T06:35:28.267Z,10.85
2022-10-24T06:40:50.103Z,10.79
2022-10-24T06:46:14.941Z,10.84
2022-10-24T06:51:36.762Z,10.84
2022-10-24T06:56:58.582Z,10.75
2022-10-24T07:02:20.911Z,10.83
2022-10-24T07:07:43.765Z,10.83
2022-10-24T07:13:05.832Z,10.93
2022-10-24T07:18:27.849Z,11.04
2022-10-24T07:23:51.193Z,11.16
2022-10-24T07:29:13.042Z,11.11
2022-10-24T07:34:34.892Z,11.16
2022-10-24T07:39:56.791Z,11.18
2022-10-24T07:45:18.637Z,11.15
2022-10-24T07:50:46.008Z,11.09
2022-10-24T07:56:08.734Z,11.19
2022-10-24T08:01:30.602Z,11.21
2022-10-24T08:06:52.699Z,11.62
2022-10-24T08:12:14.528Z,11.65
2022-10-24T08:17:36.530Z,11.84
2022-10-24T08:22:58.415Z,11.80
2022-10-24T08:28:20.748Z,12.26
2022-10-24T08:33:43.578Z,12.54
2022-10-24T08:39:05.648Z,12.63
2022-10-24T08:44:42.958Z,12.68
2022-10-24T08:50:32.449Z,12.75
2022-10-24T08:55:57.271Z,12.76
2022-10-24T09:01:33.082Z,12.93
2022-10-24T09:06:55.776Z,14.31
2022-10-24T09:12:20.674Z,15.50
2022-10-24T09:17:43.998Z,14.73
2022-10-24T09:23:06.520Z,15.04
2022-10-24T09:28:28.462Z,15.66
2022-10-24T09:33:51.930Z,17.15
2022-10-24T09:39:30.863Z,16.86
2022-10-24T09:44:57.486Z,16.09
2022-10-24T09:50:22.236Z,15.36
2022-10-24T09:55:45.205Z,15.46
2022-10-24T10:01:20.477Z,15.51
2022-10-24T10:06:48.467Z,15.55
2022-10-24T10:12:27.121Z,15.78
2022-10-24T10:17:55.157Z,15.72
2022-10-24T10:23:33.016Z,15.26
2022-10-24T10:29:25.729Z,15.11
2022-10-24T10:34:57.756Z,15.18
2022-10-24T10:40:28.629Z,15.76
2022-10-24T10:46:12.211Z,16.54
2022-10-24T10:51:45.798Z,16.55
2022-10-24T10:57:21.801Z,16.29
2022-10-24T11:03:07.269Z,16.12
2022-10-24T11:08:35.123Z,16.25
2022-10-24T11:14:18.626Z,16.32
2022-10-24T11:19:49.909Z,16.64
2022-10-24T11:25:31.462Z,16.84
2022-10-24T11:31:08.075Z,16.97
2022-10-24T11:36:45.109Z,16.95
2022-10-24T11:42:16.376Z,16.73
2022-10-24T11:48:05.052Z,17.02
2022-10-24T11:53:29.622Z,17.06
2022-10-24T11:58:59.557Z,17.28
2022-10-24T12:04:55.005Z,17.66
2022-10-24T12:10:25.986Z,17.89
2022-10-24T12:16:05.962Z,18.10
2022-10-24T12:21:37.678Z,18.68
2022-10-24T12:27:03.197Z,18.48
2022-10-24T12:32:31.192Z,18.34
2022-10-24T12:37:54.296Z,18.49
2022-10-24T12:43:48.422Z,18.22
2022-10-24T12:49:10.158Z,18.33
2022-10-24T12:54:40.701Z,18.05
2022-10-24T13:00:21.943Z,18.05
2022-10-24T13:06:18.946Z,18.05
2022-10-24T13:12:31.272Z,17.97
2022-10-24T13:18:06.467Z,17.96
2022-10-24T13:23:29.135Z,17.95
2022-10-24T13:28:51.259Z,17.92
2022-10-24T13:34:17.908Z,17.73
2022-10-24T13:39:46.703Z,17.87
2022-10-24T13:45:20.530Z,17.87
2022-10-24T13:51:08.243Z,17.54
2022-10-24T13:56:35.403Z,17.63
2022-10-24T14:02:00.275Z,17.62
2022-10-24T14:07:27.621Z,17.61
2022-10-24T14:12:49.565Z,17.59
2022-10-24T14:18:13.782Z,17.56
2022-10-24T14:23:38.779Z,17.48
2022-10-24T14:29:00.691Z,17.37
2022-10-24T14:34:23.451Z,17.25
2022-10-24T14:39:45.462Z,17.21
2022-10-24T14:45:31.442Z,17.07
2022-10-24T14:50:53.315Z,16.91
2022-10-24T14:56:24.330Z,16.85
2022-10-24T15:02:00.796Z,16.72
2022-10-24T15:07:22.569Z,16.11
2022-10-24T15:12:56.522Z,16.41
2022-10-24T15:18:25.700Z,16.35
2022-10-24T15:23:59.403Z,16.24
2022-10-24T15:29:23.283Z,16.13
2022-10-24T15:34:45.449Z,16.09
2022-10-24T15:40:31.836Z,15.95
2022-10-24T15:45:53.616Z,15.46
2022-10-24T15:51:17.377Z,15.73
2022-10-24T15:56:39.254Z,15.63
2022-10-24T16:02:01.869Z,15.63
2022-10-24T16:07:23.767Z,15.50
2022-10-24T16:12:46.043Z,15.52
2022-10-24T16:18:09.010Z,15.44
2022-10-24T16:23:32.406Z,15.41
2022-10-24T16:28:55.143Z,15.39
2022-10-24T16:34:17.091Z,15.31
2022-10-24T16:39:38.952Z,15.24
2022-10-24T16:45:00.790Z,15.16
2022-10-24T16:50:26.849Z,15.05
2022-10-24T16:55:53.511Z,15.03
2022-10-24T17:01:15.785Z,14.59
2022-10-24T17:06:37.843Z,14.86
2022-10-24T17:11:59.833Z,14.87
2022-10-24T17:17:21.815Z,14.84
2022-10-24T17:22:45.585Z,14.75
2022-10-24T17:28:07.548Z,14.63
2022-10-24T17:33:29.706Z,14.58
2022-10-24T17:39:30.857Z,14.50
2022-10-24T17:44:52.831Z,14.41
2022-10-24T17:50:15.649Z,14.43
2022-10-24T17:55:52.744Z,14.39
2022-10-24T18:01:14.610Z,14.31
2022-10-24T18:06:39.452Z,14.27
2022-10-24T18:12:05.274Z,14.23
2022-10-24T18:17:28.019Z,14.16
2022-10-24T18:22:50.637Z,14.11
2022-10-24T18:28:12.490Z,14.05
2022-10-24T18:33:34.380Z,14.04
2022-10-24T18:38:57.639Z,14.00
2022-10-24T18:44:25.511Z,14.07
2022-10-24T18:49:48.397Z,14.08
2022-10-24T18:55:22.508Z,13.99
2022-10-24T19:00:45.737Z,14.04
2022-10-24T19:06:34.598Z,14.07
2022-10-24T19:11:56.631Z,14.05
2022-10-24T19:17:19.849Z,14.09
2022-10-24T19:22:41.786Z,14.01
2022-10-24T19:28:03.695Z,13.98
2022-10-24T19:33:25.539Z,13.96
2022-10-24T19:38:47.400Z,13.95
2022-10-24T19:44:10.618Z,13.84
2022-10-24T19:49:32.405Z,13.82
2022-10-24T19:54:54.213Z,13.75
2022-10-24T20:00:16.295Z,13.69
2022-10-24T20:05:38.140Z,13.72
2022-10-24T20:11:00.089Z,13.68
2022-10-24T20:16:22.481Z,13.61
2022-10-24T20:21:44.402Z,13.58
2022-10-24T20:32:33.022Z,13.46
2022-10-24T20:37:54.903Z,13.38
2022-10-24T20:43:17.521Z,13.38
2022-10-24T20:48:39.434Z,13.34
2022-10-24T20:54:01.413Z,13.32
2022-10-24T20:59:23.241Z,13.34
2022-10-24T21:04:47.031Z,13.36
2022-10-24T21:10:10.105Z,13.34
2022-10-24T21:15:31.992Z,13.37
2022-10-24T21:20:53.853Z,13.42
2022-10-24T21:26:15.661Z,13.46
2022-10-24T21:31:37.533Z,13.39
2022-10-24T21:37:00.466Z,13.40
2022-10-24T21:42:25.119Z,13.37
2022-10-24T21:47:46.939Z,13.42
2022-10-24T21:53:09.654Z,13.46
2022-10-24T21:58:32.477Z,13.52
2022-10-24T22:03:55.353Z,13.47
2022-10-24T22:09:20.540Z,13.59
2022-10-24T22:14:42.388Z,13.62
2022-10-24T22:20:04.560Z,13.90
2022-10-24T22:25:26.392Z,13.98
2022-10-24T22:30:48.649Z,14.08
2022-10-24T22:36:16.172Z,14.28
2022-10-24T22:41:38.429Z,14.41
2022-10-24T22:47:12.213Z,14.61
2022-10-24T22:52:34.311Z,14.81
2022-10-24T22:57:56.373Z,14.97
2022-10-24T23:03:21.152Z,15.14
2022-10-24T23:08:44.292Z,15.17
2022-10-24T23:14:06.638Z,15.18
2022-10-24T23:19:30.462Z,15.32
2022-10-24T23:24:57.523Z,15.29
2022-10-24T23:30:22.465Z,15.34
2022-10-24T23:35:44.579Z,15.32
2022-10-24T23:41:10.729Z,15.35
2022-10-24T23:46:45.054Z,15.45
2022-10-24T23:52:23.634Z,15.46
2022-10-24T23:57:45.758Z,15.45
